Time;durP1;ratioP1;P1;durP2;ratioP2;P2;SDS_P1;SDS_P2;PMS_P1;PMS_P2;Temp;Humidity;BMP_temperature;BMP_pressure;BME280_temperature;BME280_humidity;BME280_pressure;Samples;Min_cycle;Max_cycle;Signal;HPM_P1;HPM_P2
2023/12/05 00:03:09;;;;;;;;;;;15.50;54.40;;;;;;10250407;28;93458;-46
2023/12/05 00:08:11;;;;;;;;;;;15.50;54.30;;;;;;10249317;28;96517;-46
2023/12/05 00:13:13;;;;;;;;;;;15.50;54.20;;;;;;10244778;28;93470;-49
2023/12/05 00:18:15;;;;;;;;;;;15.40;54.30;;;;;;10218813;28;93594;-48
2023/12/05 00:23:17;;;;;;;;;;;15.40;54.60;;;;;;10211475;28;94147;-51
2023/12/05 00:28:19;;;;;;;;;;;15.40;55.10;;;;;;10218880;28;93521;-47
2023/12/05 00:33:21;;;;;;;;;;;15.40;55.10;;;;;;10232755;28;93984;-46
2023/12/05 00:38:23;;;;;;;;;;;15.40;54.80;;;;;;10220484;28;92830;-46
2023/12/05 00:43:24;;;;;;;;;;;15.50;54.60;;;;;;10233588;28;93703;-46
2023/12/05 00:48:26;;;;;;;;;;;15.50;54.20;;;;;;10218934;28;94504;-45
2023/12/05 00:53:28;;;;;;;;;;;15.50;54.00;;;;;;10221814;28;94672;-47
2023/12/05 00:58:30;;;;;;;;;;;15.50;53.80;;;;;;10213648;28;97427;-47
2023/12/05 01:03:32;;;;;;;;;;;15.50;53.80;;;;;;10219668;28;93359;-50
2023/12/05 01:08:34;;;;;;;;;;;15.50;53.50;;;;;;10218800;28;94715;-65
2023/12/05 01:13:35;;;;;;;;;;;15.50;53.60;;;;;;10220815;28;94376;-52
2023/12/05 01:18:37;;;;;;;;;;;15.40;54.10;;;;;;10219085;28;95206;-46
2023/12/05 01:23:39;;;;;;;;;;;15.40;54.50;;;;;;10227201;28;94798;-46
2023/12/05 01:28:41;;;;;;;;;;;15.30;54.40;;;;;;10223110;28;93487;-49
2023/12/05 01:33:42;;;;;;;;;;;15.30;54.30;;;;;;10239606;28;93867;-50
2023/12/05 01:38:44;;;;;;;;;;;15.30;54.20;;;;;;10237947;28;93495;-48
2023/12/05 01:43:46;;;;;;;;;;;15.30;54.00;;;;;;10234900;28;93569;-49
2023/12/05 01:48:49;;;;;;;;;;;15.30;53.90;;;;;;10225535;28;97190;-47
2023/12/05 01:53:51;;;;;;;;;;;15.30;53.80;;;;;;10236110;28;93688;-46
2023/12/05 01:58:53;;;;;;;;;;;15.30;53.70;;;;;;10240386;28;94746;-48
2023/12/05 02:03:57;;;;;;;;;;;15.20;53.60;;;;;;10753577;22;94184;-47
2023/12/05 02:09:00;;;;;;;;;;;15.20;53.80;;;;;;10308962;28;94362;-50
2023/12/05 02:14:05;;;;;;;;;;;15.20;54.20;;;;;;10315844;28;93460;-51
2023/12/05 02:19:18;;;;;;;;;;;15.20;54.50;;;;;;10323779;28;93619;-49
2023/12/05 02:24:25;;;;;;;;;;;15.20;54.40;;;;;;10324197;28;93043;-51
2023/12/05 02:29:27;;;;;;;;;;;15.20;54.10;;;;;;10322608;28;94361;-47
2023/12/05 02:34:29;;;;;;;;;;;15.20;53.80;;;;;;10311094;28;93479;-47
2023/12/05 02:39:37;;;;;;;;;;;15.20;53.60;;;;;;10319984;28;96106;-50
2023/12/05 02:44:41;;;;;;;;;;;15.20;53.40;;;;;;10316576;28;93619;-47
2023/12/05 02:49:42;;;;;;;;;;;15.20;53.30;;;;;;10306507;28;93805;-47
2023/12/05 02:54:44;;;;;;;;;;;15.20;53.20;;;;;;10323362;28;94861;-53
2023/12/05 02:59:46;;;;;;;;;;;15.20;53.20;;;;;;10299983;28;92630;-49
2023/12/05 03:04:48;;;;;;;;;;;15.20;53.40;;;;;;10294095;28;93599;-48
2023/12/05 03:09:51;;;;;;;;;;;15.10;53.90;;;;;;10322637;28;93445;-49
2023/12/05 03:14:53;;;;;;;;;;;15.10;54.00;;;;;;10325144;28;92814;-50
2023/12/05 03:19:55;;;;;;;;;;;15.00;54.30;;;;;;10313022;28;93506;-51
2023/12/05 03:24:56;;;;;;;;;;;15.00;54.40;;;;;;10299863;28;95062;-49
2023/12/05 03:29:58;;;;;;;;;;;15.10;54.40;;;;;;10317159;28;95815;-50
2023/12/05 03:35:00;;;;;;;;;;;15.20;54.50;;;;;;10321200;28;93986;-49
2023/12/05 03:40:02;;;;;;;;;;;15.20;54.40;;;;;;10322694;28;94668;-49
2023/12/05 03:45:05;;;;;;;;;;;15.30;54.30;;;;;;10321707;28;94064;-49
2023/12/05 03:50:07;;;;;;;;;;;15.30;54.20;;;;;;10322993;28;93839;-51
2023/12/05 03:55:09;;;;;;;;;;;15.30;54.10;;;;;;10319051;28;94164;-55
2023/12/05 04:00:12;;;;;;;;;;;15.30;54.10;;;;;;10300323;28;93843;-48
2023/12/05 04:05:14;;;;;;;;;;;15.30;54.10;;;;;;10328892;28;92664;-47
2023/12/05 04:10:16;;;;;;;;;;;15.30;54.10;;;;;;10298163;28;93956;-47
2023/12/05 04:15:18;;;;;;;;;;;15.30;54.20;;;;;;10309950;28;94001;-47
2023/12/05 04:20:21;;;;;;;;;;;15.20;54.20;;;;;;10324835;28;95861;-50
2023/12/05 04:25:23;;;;;;;;;;;15.30;54.40;;;;;;10327781;28;93465;-46
2023/12/05 04:30:24;;;;;;;;;;;15.20;54.50;;;;;;10316183;28;94324;-47
2023/12/05 04:35:26;;;;;;;;;;;15.20;54.50;;;;;;10325726;28;94457;-47
2023/12/05 04:40:28;;;;;;;;;;;15.10;54.40;;;;;;10327844;28;93494;-48
2023/12/05 04:45:30;;;;;;;;;;;15.10;54.40;;;;;;10325476;28;94525;-46
2023/12/05 04:50:32;;;;;;;;;;;15.10;54.50;;;;;;10327302;28;93688;-47
2023/12/05 04:55:34;;;;;;;;;;;15.10;54.50;;;;;;10328759;28;93176;-50
2023/12/05 05:00:36;;;;;;;;;;;15.10;54.60;;;;;;10320716;28;95167;-51
2023/12/05 05:05:38;;;;;;;;;;;15.00;54.60;;;;;;10307526;28;94800;-50
2023/12/05 05:10:40;;;;;;;;;;;15.00;54.80;;;;;;10323412;28;95926;-49
2023/12/05 05:15:42;;;;;;;;;;;15.10;54.80;;;;;;10325749;28;93467;-47
2023/12/05 05:20:44;;;;;;;;;;;15.10;54.70;;;;;;10324819;28;93867;-46
2023/12/05 05:25:46;;;;;;;;;;;15.20;54.60;;;;;;10325055;28;94013;-50
2023/12/05 05:30:48;;;;;;;;;;;15.20;54.50;;;;;;10311933;28;93372;-46
2023/12/05 05:35:50;;;;;;;;;;;15.30;54.50;;;;;;10321888;28;93614;-47
2023/12/05 05:41:02;;;;;;;;;;;15.30;54.40;;;;;;10320221;28;95013;-49
2023/12/05 05:46:03;;;;;;;;;;;15.30;54.40;;;;;;10325364;28;92158;-50
2023/12/05 05:51:05;;;;;;;;;;;15.50;54.50;;;;;;10324537;28;94322;-51
2023/12/05 05:56:07;;;;;;;;;;;15.60;54.30;;;;;;10315295;28;93464;-48
2023/12/05 06:01:10;;;;;;;;;;;15.80;53.90;;;;;;10321137;28;95489;-47
2023/12/05 06:06:12;;;;;;;;;;;16.00;53.60;;;;;;10319971;28;93929;-45
2023/12/05 06:11:14;;;;;;;;;;;16.20;53.30;;;;;;10313400;28;93523;-46
2023/12/05 06:16:16;;;;;;;;;;;16.30;53.20;;;;;;10305659;28;93789;-50
2023/12/05 06:21:17;;;;;;;;;;;16.30;53.00;;;;;;10302391;28;93601;-47
2023/12/05 06:26:19;;;;;;;;;;;16.40;53.20;;;;;;10304238;28;93814;-47
2023/12/05 06:31:21;;;;;;;;;;;16.50;54.00;;;;;;10313404;28;94439;-46
2023/12/05 06:36:23;;;;;;;;;;;16.50;53.90;;;;;;10320721;28;94723;-46
2023/12/05 06:41:25;;;;;;;;;;;16.60;53.60;;;;;;10322947;28;93433;-46
2023/12/05 06:46:27;;;;;;;;;;;16.70;53.50;;;;;;10322262;28;94181;-47
2023/12/05 06:51:29;;;;;;;;;;;16.70;54.00;;;;;;10319215;28;96832;-46
2023/12/05 06:56:30;;;;;;;;;;;16.70;53.90;;;;;;10294787;28;93421;-44
2023/12/05 07:01:32;;;;;;;;;;;16.70;54.00;;;;;;10321103;28;93401;-45
2023/12/05 07:06:35;;;;;;;;;;;16.70;54.00;;;;;;10310854;28;93494;-43
2023/12/05 07:11:37;;;;;;;;;;;16.80;54.00;;;;;;10323093;28;93597;-46
2023/12/05 07:16:39;;;;;;;;;;;16.80;55.10;;;;;;10321528;28;94159;-44
2023/12/05 07:21:41;;;;;;;;;;;16.80;54.70;;;;;;10322568;28;92578;-44
2023/12/05 07:26:43;;;;;;;;;;;16.70;54.20;;;;;;10303309;28;93867;-47
2023/12/05 07:31:46;;;;;;;;;;;16.60;53.10;;;;;;10328533;28;94576;-45
2023/12/05 07:36:47;;;;;;;;;;;16.40;53.70;;;;;;10310250;28;92847;-48
2023/12/05 07:41:49;;;;;;;;;;;16.40;54.60;;;;;;10291072;28;97354;-46
2023/12/05 07:46:51;;;;;;;;;;;16.30;54.20;;;;;;10328675;28;93483;-46
2023/12/05 07:51:53;;;;;;;;;;;16.10;53.90;;;;;;10328325;28;93435;-47
2023/12/05 07:56:55;;;;;;;;;;;16.00;53.80;;;;;;10309312;28;93485;-48
2023/12/05 08:01:57;;;;;;;;;;;16.00;54.00;;;;;;10323885;28;94127;-47
2023/12/05 08:07:01;;;;;;;;;;;15.90;54.20;;;;;;10305340;28;93676;-47
2023/12/05 08:12:03;;;;;;;;;;;15.80;54.20;;;;;;10327739;28;93734;-48
2023/12/05 08:17:05;;;;;;;;;;;15.70;53.70;;;;;;10312508;28;92781;-45
2023/12/05 08:22:07;;;;;;;;;;;15.60;53.90;;;;;;10325262;28;93827;-48
2023/12/05 08:27:09;;;;;;;;;;;15.60;55.40;;;;;;10326019;28;94496;-49
2023/12/05 08:32:11;;;;;;;;;;;15.50;56.10;;;;;;10292422;28;96905;-49
2023/12/05 08:37:14;;;;;;;;;;;15.50;55.10;;;;;;10301801;28;93715;-48
2023/12/05 08:42:16;;;;;;;;;;;15.50;55.20;;;;;;10324165;28;94617;-46
2023/12/05 08:47:18;;;;;;;;;;;15.40;55.20;;;;;;10324602;28;93845;-66
2023/12/05 08:52:20;;;;;;;;;;;15.40;55.30;;;;;;10327246;28;93526;-50
2023/12/05 08:57:22;;;;;;;;;;;15.30;55.30;;;;;;10325174;28;94479;-48
2023/12/05 09:02:24;;;;;;;;;;;15.30;55.40;;;;;;10318286;28;93563;-48
2023/12/05 09:07:26;;;;;;;;;;;15.20;55.40;;;;;;10326002;28;92751;-46
2023/12/05 09:12:28;;;;;;;;;;;15.20;55.60;;;;;;10325972;28;93334;-49
2023/12/05 09:17:31;;;;;;;;;;;15.10;55.60;;;;;;10325798;28;95977;-47
2023/12/05 09:22:34;;;;;;;;;;;15.10;55.70;;;;;;10322434;28;97367;-48
2023/12/05 09:27:36;;;;;;;;;;;15.10;55.70;;;;;;10296113;28;93839;-50
2023/12/05 09:32:38;;;;;;;;;;;15.00;55.80;;;;;;10324876;28;94395;-49
2023/12/05 09:37:40;;;;;;;;;;;15.00;55.90;;;;;;10325137;28;93863;-48
2023/12/05 09:42:42;;;;;;;;;;;14.90;56.00;;;;;;10325700;28;93451;-49
2023/12/05 09:47:49;;;;;;;;;;;14.90;56.00;;;;;;10325051;28;93525;-47
2023/12/05 09:52:51;;;;;;;;;;;14.90;56.10;;;;;;10325810;28;93375;-48
2023/12/05 09:57:54;;;;;;;;;;;14.80;56.20;;;;;;10326488;28;93915;-46
2023/12/05 10:02:57;;;;;;;;;;;14.80;56.20;;;;;;10323882;28;93505;-49
2023/12/05 10:07:59;;;;;;;;;;;14.80;56.30;;;;;;10324092;28;93998;-47
2023/12/05 10:13:01;;;;;;;;;;;14.70;56.30;;;;;;10312236;28;95827;-45
2023/12/05 10:18:04;;;;;;;;;;;14.70;56.40;;;;;;10302305;28;93936;-48
2023/12/05 10:23:06;;;;;;;;;;;14.70;56.50;;;;;;10299733;28;93470;-46
2023/12/05 10:28:08;;;;;;;;;;;14.70;56.50;;;;;;10312526;28;94483;-45
2023/12/05 10:33:11;;;;;;;;;;;14.70;56.70;;;;;;10304553;28;94007;-46
2023/12/05 10:38:15;;;;;;;;;;;14.70;57.70;;;;;;10323600;28;93612;-45
2023/12/05 10:43:17;;;;;;;;;;;14.70;56.80;;;;;;10304223;28;93400;-48
2023/12/05 10:48:19;;;;;;;;;;;14.70;56.70;;;;;;10323193;28;92726;-46
2023/12/05 10:53:21;;;;;;;;;;;14.70;56.70;;;;;;10322476;28;93451;-54
2023/12/05 10:58:24;;;;;;;;;;;14.60;56.70;;;;;;10323060;28;93469;-51
2023/12/05 11:03:26;;;;;;;;;;;14.60;56.60;;;;;;10301290;28;97175;-46
2023/12/05 11:08:28;;;;;;;;;;;14.60;56.70;;;;;;10310694;28;93981;-48
2023/12/05 11:13:30;;;;;;;;;;;14.60;56.80;;;;;;10322069;28;93471;-46
2023/12/05 11:18:35;;;;;;;;;;;14.60;56.80;;;;;;10311532;28;94430;-47
2023/12/05 11:23:42;;;;;;;;;;;14.50;56.80;;;;;;10313827;28;93587;-50
2023/12/05 11:28:56;;;;;;;;;;;14.50;56.80;;;;;;10320835;28;94388;-50
2023/12/05 11:34:06;;;;;;;;;;;14.50;56.80;;;;;;10313579;28;94818;-46
2023/12/05 11:39:09;;;;;;;;;;;14.50;56.70;;;;;;10323934;28;92804;-49
2023/12/05 11:44:12;;;;;;;;;;;14.50;57.30;;;;;;10321044;28;93143;-49
2023/12/05 11:49:25;;;;;;;;;;;14.50;56.80;;;;;;10322547;28;93484;-48
2023/12/05 11:54:31;;;;;;;;;;;14.50;56.80;;;;;;10318637;28;96098;-47
2023/12/05 11:59:43;;;;;;;;;;;14.40;56.70;;;;;;10320176;28;94542;-47
2023/12/05 12:04:45;;;;;;;;;;;14.40;56.80;;;;;;10320931;28;94751;-50
2023/12/05 12:09:47;;;;;;;;;;;14.40;56.80;;;;;;10286519;28;94565;-47
2023/12/05 12:14:49;;;;;;;;;;;14.40;56.80;;;;;;10327264;28;93442;-47
2023/12/05 12:19:51;;;;;;;;;;;14.40;56.90;;;;;;10327885;28;94465;-46
2023/12/05 12:25:02;;;;;;;;;;;14.40;56.80;;;;;;10327800;28;92935;-47
2023/12/05 12:30:07;;;;;;;;;;;14.40;56.80;;;;;;10327028;28;93949;-47
2023/12/05 12:35:08;;;;;;;;;;;14.40;56.80;;;;;;10296845;28;93531;-49
2023/12/05 12:40:13;;;;;;;;;;;14.40;56.80;;;;;;10307184;28;94516;-48
2023/12/05 12:45:15;;;;;;;;;;;14.40;56.80;;;;;;10305979;28;96688;-49
2023/12/05 12:50:17;;;;;;;;;;;14.40;56.70;;;;;;10326194;28;93554;-51
2023/12/05 12:55:19;;;;;;;;;;;14.40;56.80;;;;;;10326764;28;93881;-50
2023/12/05 13:00:21;;;;;;;;;;;14.40;56.80;;;;;;10325692;28;94060;-48
2023/12/05 13:05:38;;;;;;;;;;;14.40;56.80;;;;;;10310943;28;94298;-46
2023/12/05 13:10:41;;;;;;;;;;;14.40;56.80;;;;;;10321675;28;93623;-49
2023/12/05 13:15:44;;;;;;;;;;;14.40;56.70;;;;;;10313244;28;93693;-47
2023/12/05 13:20:51;;;;;;;;;;;14.40;56.70;;;;;;10307602;28;93471;-51
2023/12/05 13:25:53;;;;;;;;;;;14.30;56.80;;;;;;10304456;28;93457;-50
2023/12/05 13:30:55;;;;;;;;;;;14.30;56.60;;;;;;10297887;28;93560;-49
2023/12/05 13:35:57;;;;;;;;;;;14.30;56.60;;;;;;10323015;28;96857;-49
2023/12/05 13:40:59;;;;;;;;;;;14.30;56.60;;;;;;10324177;28;92948;-48
2023/12/05 13:46:01;;;;;;;;;;;14.30;56.70;;;;;;10324690;28;93892;-48
2023/12/05 13:51:06;;;;;;;;;;;14.30;56.60;;;;;;10324089;28;93294;-47
2023/12/05 13:56:08;;;;;;;;;;;14.30;56.60;;;;;;10294218;28;93687;-48
2023/12/05 14:01:10;;;;;;;;;;;14.30;56.60;;;;;;10295979;28;94537;-46
2023/12/05 14:06:12;;;;;;;;;;;14.30;56.50;;;;;;10323336;28;94659;-45
2023/12/05 14:11:14;;;;;;;;;;;14.30;56.50;;;;;;10313890;28;93861;-47
2023/12/05 14:16:16;;;;;;;;;;;14.30;56.60;;;;;;10325389;28;93400;-47
2023/12/05 14:21:18;;;;;;;;;;;14.30;56.50;;;;;;10324117;28;94251;-47
2023/12/05 14:26:20;;;;;;;;;;;14.20;56.50;;;;;;10316339;28;97201;-46
2023/12/05 14:31:22;;;;;;;;;;;14.20;56.40;;;;;;10299532;28;93654;-47
2023/12/05 14:36:24;;;;;;;;;;;14.20;56.40;;;;;;10321430;28;94153;-49
2023/12/05 14:41:26;;;;;;;;;;;14.20;56.50;;;;;;10324083;28;93624;-51
2023/12/05 14:46:27;;;;;;;;;;;14.20;56.50;;;;;;10322594;28;93665;-48
2023/12/05 14:51:29;;;;;;;;;;;14.10;56.40;;;;;;10322043;28;93487;-48
2023/12/05 14:56:31;;;;;;;;;;;14.20;56.40;;;;;;10321856;28;93402;-47
2023/12/05 15:01:33;;;;;;;;;;;14.10;56.40;;;;;;10311823;28;94020;-46
2023/12/05 15:06:35;;;;;;;;;;;14.10;56.50;;;;;;10321616;28;93632;-49
2023/12/05 15:11:37;;;;;;;;;;;14.10;56.50;;;;;;10320467;28;93948;-49
2023/12/05 15:16:39;;;;;;;;;;;14.10;56.40;;;;;;10311743;28;95845;-48
2023/12/05 15:21:41;;;;;;;;;;;14.10;56.40;;;;;;10314895;28;94876;-48
2023/12/05 15:26:44;;;;;;;;;;;14.10;56.40;;;;;;10309826;28;94071;-51
2023/12/05 15:31:48;;;;;;;;;;;14.10;56.40;;;;;;10319126;28;94300;-47
2023/12/05 15:36:50;;;;;;;;;;;14.00;56.40;;;;;;10292800;28;93455;-50
2023/12/05 15:41:52;;;;;;;;;;;14.00;56.40;;;;;;10320501;28;93341;-49
2023/12/05 15:46:54;;;;;;;;;;;14.00;56.40;;;;;;10324412;28;96162;-49
2023/12/05 15:51:56;;;;;;;;;;;14.00;56.40;;;;;;10304543;28;92710;-52
2023/12/05 15:56:58;;;;;;;;;;;14.00;56.40;;;;;;10328080;28;94948;-45
2023/12/05 16:02:00;;;;;;;;;;;14.00;56.40;;;;;;10329137;28;93442;-50
2023/12/05 16:07:02;;;;;;;;;;;13.90;56.40;;;;;;10326335;28;96853;-47
2023/12/05 16:12:05;;;;;;;;;;;13.90;56.40;;;;;;10329400;28;94461;-48
2023/12/05 16:17:06;;;;;;;;;;;13.90;56.40;;;;;;10309348;28;93521;-46
2023/12/05 16:22:08;;;;;;;;;;;13.90;56.40;;;;;;10327928;28;94449;-50
2023/12/05 16:27:10;;;;;;;;;;;13.90;56.40;;;;;;10326578;28;93546;-52
2023/12/05 16:32:11;;;;;;;;;;;13.90;56.40;;;;;;10315022;28;93431;-50
2023/12/05 16:37:13;;;;;;;;;;;13.90;56.40;;;;;;10327885;28;93512;-48
2023/12/05 16:42:16;;;;;;;;;;;13.90;56.40;;;;;;10328269;28;93152;-50
2023/12/05 16:47:18;;;;;;;;;;;13.80;56.40;;;;;;10327547;28;93765;-55
2023/12/05 16:52:20;;;;;;;;;;;13.80;56.30;;;;;;10326880;28;94322;-51
2023/12/05 16:57:22;;;;;;;;;;;13.80;56.40;;;;;;10321672;28;95781;-47
2023/12/05 17:02:28;;;;;;;;;;;13.80;56.40;;;;;;10318164;28;93475;-50
2023/12/05 17:07:30;;;;;;;;;;;13.80;56.50;;;;;;10326487;28;94731;-48
2023/12/05 17:12:32;;;;;;;;;;;13.80;56.60;;;;;;10324809;28;93718;-52
2023/12/05 17:17:34;;;;;;;;;;;13.80;56.40;;;;;;10296321;28;93506;-46
2023/12/05 17:22:35;;;;;;;;;;;13.90;56.50;;;;;;10326385;28;93453;-47
2023/12/05 17:27:37;;;;;;;;;;;14.20;56.30;;;;;;10306688;28;94040;-48
2023/12/05 17:32:39;;;;;;;;;;;14.50;55.70;;;;;;10327580;28;92798;-47
2023/12/05 17:37:41;;;;;;;;;;;14.70;54.90;;;;;;10326672;28;93565;-50
2023/12/05 17:42:43;;;;;;;;;;;15.00;54.40;;;;;;10325402;28;94918;-48
2023/12/05 17:47:46;;;;;;;;;;;15.20;54.00;;;;;;10323277;28;95972;-51
2023/12/05 17:52:47;;;;;;;;;;;15.40;53.50;;;;;;10324650;28;93647;-46
2023/12/05 17:57:49;;;;;;;;;;;15.60;53.10;;;;;;10325260;28;94207;-47
2023/12/05 18:02:51;;;;;;;;;;;15.80;52.70;;;;;;10306436;28;94582;-49
2023/12/05 18:07:53;;;;;;;;;;;15.90;53.50;;;;;;10315339;28;93576;-45
2023/12/05 18:13:01;;;;;;;;;;;16.00;52.50;;;;;;10323618;28;93563;-46
2023/12/05 18:18:04;;;;;;;;;;;16.10;52.70;;;;;;10323747;28;93609;-46
2023/12/05 18:23:06;;;;;;;;;;;16.10;52.60;;;;;;10325025;28;93522;-46
2023/12/05 18:28:07;;;;;;;;;;;16.20;52.60;;;;;;10324304;28;93480;-51
2023/12/05 18:33:10;;;;;;;;;;;16.30;52.30;;;;;;10293219;28;93343;-50
2023/12/05 18:38:12;;;;;;;;;;;16.40;52.10;;;;;;10303464;28;95897;-50
2023/12/05 18:43:14;;;;;;;;;;;16.40;51.80;;;;;;10323706;28;93812;-49
2023/12/05 18:48:16;;;;;;;;;;;16.50;51.60;;;;;;10322861;28;94448;-50
2023/12/05 18:53:18;;;;;;;;;;;16.60;51.50;;;;;;10322246;28;93936;-47
2023/12/05 18:58:20;;;;;;;;;;;16.60;51.20;;;;;;10292925;28;93436;-49
2023/12/05 19:03:21;;;;;;;;;;;16.60;51.20;;;;;;10321150;28;94997;-48
2023/12/05 19:08:23;;;;;;;;;;;16.70;51.50;;;;;;10322590;28;94497;-45
2023/12/05 19:13:25;;;;;;;;;;;16.70;51.60;;;;;;10323162;28;93441;-47
2023/12/05 19:18:27;;;;;;;;;;;16.70;51.70;;;;;;10321986;28;93418;-46
2023/12/05 19:23:29;;;;;;;;;;;16.70;51.70;;;;;;10328372;28;93500;-50
2023/12/05 19:28:33;;;;;;;;;;;16.80;51.70;;;;;;10327154;28;95787;-50
2023/12/05 19:33:51;;;;;;;;;;;16.90;51.60;;;;;;10316836;28;93479;-50
2023/12/05 19:38:53;;;;;;;;;;;16.90;51.70;;;;;;10329776;28;94638;-50
2023/12/05 19:43:55;;;;;;;;;;;16.90;51.70;;;;;;10326192;28;94325;-51
2023/12/05 19:48:57;;;;;;;;;;;16.90;51.60;;;;;;10329201;28;94232;-46
2023/12/05 19:54:00;;;;;;;;;;;17.00;51.60;;;;;;10328479;28;93522;-48
2023/12/05 19:59:02;;;;;;;;;;;17.00;51.60;;;;;;10329083;28;92878;-48
2023/12/05 20:04:04;;;;;;;;;;;17.00;51.60;;;;;;10329174;28;93211;-46
2023/12/05 20:09:06;;;;;;;;;;;17.00;51.50;;;;;;10327143;28;94057;-46
2023/12/05 20:14:08;;;;;;;;;;;17.00;51.60;;;;;;10327300;28;94654;-47
2023/12/05 20:19:10;;;;;;;;;;;17.00;51.50;;;;;;10322243;28;95787;-47
2023/12/05 20:24:12;;;;;;;;;;;17.10;51.50;;;;;;10309075;28;94675;-51
2023/12/05 20:29:15;;;;;;;;;;;17.10;51.50;;;;;;10317293;28;93618;-49
2023/12/05 20:34:17;;;;;;;;;;;17.10;51.50;;;;;;10326061;28;92902;-52
2023/12/05 20:39:18;;;;;;;;;;;17.20;51.50;;;;;;10327528;28;94482;-52
2023/12/05 20:44:20;;;;;;;;;;;17.20;51.50;;;;;;10303776;28;93493;-50
2023/12/05 20:49:22;;;;;;;;;;;17.20;51.50;;;;;;10298009;28;93790;-45
2023/12/05 20:54:24;;;;;;;;;;;17.10;51.40;;;;;;10319968;28;93435;-50
2023/12/05 20:59:26;;;;;;;;;;;17.00;51.50;;;;;;10325036;28;93448;-50
2023/12/05 21:04:28;;;;;;;;;;;16.90;51.60;;;;;;10307423;28;93396;-50
2023/12/05 21:09:30;;;;;;;;;;;16.70;51.80;;;;;;10313215;28;96109;-47
2023/12/05 21:14:32;;;;;;;;;;;16.60;51.90;;;;;;10324867;28;93314;-46
2023/12/05 21:19:34;;;;;;;;;;;16.50;52.10;;;;;;10327009;28;93466;-51
2023/12/05 21:24:36;;;;;;;;;;;16.30;52.30;;;;;;10324383;28;92803;-50
2023/12/05 21:29:40;;;;;;;;;;;16.20;52.50;;;;;;10326709;28;93519;-47
2023/12/05 21:34:42;;;;;;;;;;;16.10;52.60;;;;;;10288153;28;93949;-49
2023/12/05 21:39:44;;;;;;;;;;;16.00;52.80;;;;;;10324563;28;93437;-50
2023/12/05 21:44:46;;;;;;;;;;;15.90;52.90;;;;;;10324755;28;92771;-48
2023/12/05 21:49:48;;;;;;;;;;;15.80;52.80;;;;;;10294966;28;93486;-50
2023/12/05 21:54:50;;;;;;;;;;;15.70;52.70;;;;;;10304380;28;93915;-50
2023/12/05 21:59:52;;;;;;;;;;;15.70;52.60;;;;;;10322829;28;95864;-50
2023/12/05 22:04:53;;;;;;;;;;;15.60;52.50;;;;;;10321807;28;94069;-50
2023/12/05 22:09:55;;;;;;;;;;;15.50;52.40;;;;;;10311183;28;93718;-50
2023/12/05 22:14:57;;;;;;;;;;;15.50;52.30;;;;;;10317150;28;94122;-50
2023/12/05 22:20:00;;;;;;;;;;;15.40;52.20;;;;;;10318071;28;93439;-51
2023/12/05 22:25:03;;;;;;;;;;;15.40;52.20;;;;;;10317021;28;93433;-57
2023/12/05 22:30:07;;;;;;;;;;;15.30;52.40;;;;;;10317891;28;114012;-49
2023/12/05 22:35:11;;;;;;;;;;;15.20;52.80;;;;;;10316286;28;92818;-51
2023/12/05 22:40:12;;;;;;;;;;;15.20;53.00;;;;;;10322899;28;93077;-48
2023/12/05 22:45:15;;;;;;;;;;;15.20;53.00;;;;;;10322444;28;94189;-49
2023/12/05 22:50:17;;;;;;;;;;;15.20;52.80;;;;;;10291647;28;95800;-51
2023/12/05 22:55:19;;;;;;;;;;;15.20;52.60;;;;;;10305292;28;94746;-49
2023/12/05 23:00:25;;;;;;;;;;;15.30;52.50;;;;;;10320071;28;94017;-48
2023/12/05 23:05:28;;;;;;;;;;;15.20;52.10;;;;;;10322638;28;93622;-51
2023/12/05 23:10:32;;;;;;;;;;;15.20;52.10;;;;;;10315320;28;93556;-48
2023/12/05 23:15:34;;;;;;;;;;;15.20;52.00;;;;;;10320424;28;93436;-48
2023/12/05 23:20:36;;;;;;;;;;;15.10;52.00;;;;;;10320258;28;93815;-48
2023/12/05 23:25:38;;;;;;;;;;;15.20;52.30;;;;;;10319116;28;92746;-47
2023/12/05 23:30:40;;;;;;;;;;;15.20;52.70;;;;;;10311494;28;94864;-51
2023/12/05 23:35:41;;;;;;;;;;;15.20;52.70;;;;;;10305000;28;93523;-46
2023/12/05 23:40:44;;;;;;;;;;;15.20;52.50;;;;;;10319369;28;95767;-50
2023/12/05 23:45:45;;;;;;;;;;;15.20;52.30;;;;;;10321608;28;94071;-51
2023/12/05 23:50:48;;;;;;;;;;;15.10;53.10;;;;;;10303795;28;94193;-47
2023/12/05 23:55:50;;;;;;;;;;;15.20;52.20;;;;;;10320626;28;93804;-46
